Latest Weather Observations for Lord Howe Island Windy Point

IDN60801

Issued at 7:34 am EDT Tuesday 3 March 2015 (issued every 30 minutes, with the page automatically refreshed every 10 minutes)

About weather observations | Map of weather stations | Latest weather observations for NSW | Other Formats
Station Details ID: 200715 Name: LORD HOWE ISLAND WINDY POINT Lat: -31.54 Lon: 159.07 Height: 4.0 m
Data from the previous 72 hours. | See also: Recent months for locations in New South Wales
Date/Time
EDT
Temp
°C
App
Temp
°C
Dew
Point
Rel
Hum
%
Delta-T
°C
Wind Press
QNH
hPa
Press
MSL
hPa
Rain
since 9 am
mm
Dir
 
Spd
km/h
Gust
km/h
Spd
kts
Gust
kts
03/07:30am - - - - - ESE 20 33 11 18 - - -
03/07:00am - - - - - ESE 19 30 10 16 - - -
03/06:30am - - - - - ESE 17 26 9 14 - - -
03/06:00am - - - - - SE 17 28 9 15 - - -
03/05:30am - - - - - SE 15 24 8 13 - - -
03/05:00am - - - - - SE 13 20 7 11 - - -
03/04:30am - - - - - SE 13 19 7 10 - - -
03/04:00am - - - - - SE 11 19 6 10 - - -
03/03:30am - - - - - ESE 17 30 9 16 - - -
03/03:00am - - - - - SE 13 30 7 16 - - -
03/02:30am - - - - - SE 17 28 9 15 - - -
03/02:00am - - - - - ESE 15 33 8 18 - - -
03/01:30am - - - - - ESE 17 30 9 16 - - -
03/01:00am - - - - - S 20 39 11 21 - - -
03/12:30am - - - - - SE 11 20 6 11 - - -
03/12:00am - - - - - S 17 33 9 18 - - -
 
Date/Time
EDT
Temp
°C
App
Temp
°C
Dew
Point
Rel
Hum
%
Delta-T
°C
Wind Press
QNH
hPa
Press
MSL
hPa
Rain
since 9 am
mm
Dir
 
Spd
km/h
Gust
km/h
Spd
kts
Gust
kts
02/11:30pm - - - - - SE 13 26 7 14 - - -
02/11:00pm - - - - - S 13 30 7 16 - - -
02/10:30pm - - - - - SSW 19 46 10 25 - - -
02/10:00pm - - - - - S 19 44 10 24 - - -
02/09:30pm - - - - - SSE 9 19 5 10 - - -
02/09:00pm - - - - - ESE 15 32 8 17 - - -
02/08:30pm - - - - - SE 17 32 9 17 - - -
02/08:01pm - - - - - SE 24 46 13 25 - - -
02/08:00pm - - - - - SE 22 43 12 23 - - -
02/07:38pm - - - - - S 20 50 11 27 - - -
02/07:30pm - - - - - S 24 57 13 31 - - -
02/07:19pm - - - - - S 28 72 15 39 - - -
02/07:00pm - - - - - S 20 41 11 22 - - -
02/06:30pm - - - - - S 22 41 12 22 - - -
02/06:10pm - - - - - S 26 50 14 27 - - -
02/06:00pm - - - - - S 26 48 14 26 - - -
02/05:42pm - - - - - SSE 28 56 15 30 - - -
02/05:30pm - - - - - SSE 20 44 11 24 - - -
02/05:00pm - - - - - S 26 43 14 23 - - -
02/04:32pm - - - - - SSE 22 54 12 29 - - -
02/04:30pm - - - - - SSE 20 54 11 29 - - -
02/04:00pm - - - - - S 22 39 12 21 - - -
02/03:31pm - - - - - S 28 48 15 26 - - -
02/03:30pm - - - - - S 26 48 14 26 - - -
02/03:01pm - - - - - S 28 54 15 29 - - -
02/03:00pm - - - - - S 26 54 14 29 - - -
02/02:30pm - - - - - S 24 39 13 21 - - -
02/02:00pm - - - - - S 26 41 14 22 - - -
02/01:30pm - - - - - SSW 30 37 16 20 - - -
02/01:00pm - - - - - SSW 30 35 16 19 - - -
02/12:30pm - - - - - SSW 26 30 14 16 - - -
02/12:00pm - - - - - SSW 26 32 14 17 - - -
02/11:30am - - - - - SW 26 32 14 17 - - -
02/11:00am - - - - - SSW 24 30 13 16 - - -
02/10:30am - - - - - SSW 17 22 9 12 - - -
02/10:00am - - - - - SSW 20 26 11 14 - - -
02/09:30am - - - - - SSW 19 26 10 14 - - -
02/09:00am - - - - - SSW 20 26 11 14 - - -
02/08:30am - - - - - SSW 20 24 11 13 - - -
02/08:00am - - - - - SSW 22 26 12 14 - - -
02/07:30am - - - - - SW 7 17 4 9 - - -
02/07:00am - - - - - SSW 19 20 10 11 - - -
02/06:30am - - - - - SSW 19 20 10 11 - - -
02/06:00am - - - - - SSW 19 20 10 11 - - -
02/05:30am - - - - - CALM 0 0 0 0 - - -
02/05:00am - - - - - ESE 6 13 3 7 - - -
02/04:30am - - - - - SSE 2 7 1 4 - - -
02/04:00am - - - - - CALM 0 6 0 3 - - -
02/03:30am - - - - - E 2 6 1 3 - - -
02/03:00am - - - - - SSW 9 11 5 6 - - -
02/02:30am - - - - - SW 6 9 3 5 - - -
02/02:00am - - - - - WSW 11 13 6 7 - - -
02/01:30am - - - - - SE 6 9 3 5 - - -
02/01:00am - - - - - SE 7 9 4 5 - - -
02/12:30am - - - - - E 6 9 3 5 - - -
02/12:00am - - - - - E 11 15 6 8 - - -
 
Date/Time
EDT
Temp
°C
App
Temp
°C
Dew
Point
Rel
Hum
%
Delta-T
°C
Wind Press
QNH
hPa
Press
MSL
hPa
Rain
since 9 am
mm
Dir
 
Spd
km/h
Gust
km/h
Spd
kts
Gust
kts
01/11:30pm - - - - - E 9 15 5 8 - - -
01/11:00pm - - - - - E 2 7 1 4 - - -
01/10:30pm - - - - - ENE 6 9 3 5 - - -
01/10:00pm - - - - - ENE 11 15 6 8 - - -
01/09:30pm - - - - - ENE 17 20 9 11 - - -
01/09:00pm - - - - - ENE 15 20 8 11 - - -
01/08:30pm - - - - - ENE 19 22 10 12 - - -
01/08:00pm - - - - - ENE 17 20 9 11 - - -
01/07:30pm - - - - - ENE 15 19 8 10 - - -
01/07:00pm - - - - - ENE 13 20 7 11 - - -
01/06:30pm - - - - - ENE 17 20 9 11 - - -
01/06:00pm - - - - - ENE 17 26 9 14 - - -
01/05:30pm - - - - - ENE 19 22 10 12 - - -
01/05:00pm - - - - - ENE 20 28 11 15 - - -
01/04:30pm - - - - - ENE 20 26 11 14 - - -
01/04:00pm - - - - - E 20 26 11 14 - - -
01/03:30pm - - - - - E 19 24 10 13 - - -
01/03:00pm - - - - - E 17 20 9 11 - - -
01/02:30pm - - - - - E 19 22 10 12 - - -
01/02:00pm - - - - - E 19 22 10 12 - - -
01/01:30pm - - - - - E 19 26 10 14 - - -
01/01:00pm - - - - - E 20 24 11 13 - - -
01/12:30pm - - - - - E 19 22 10 12 - - -
01/12:00pm - - - - - ENE 19 24 10 13 - - -
01/11:30am - - - - - ENE 22 26 12 14 - - -
01/11:00am - - - - - ENE 22 26 12 14 - - -
01/10:30am - - - - - E 24 28 13 15 - - -
01/10:00am - - - - - E 24 28 13 15 - - -
01/09:30am - - - - - ENE 24 30 13 16 - - -
01/09:00am - - - - - E 22 28 12 15 - - -
01/08:30am - - - - - E 22 28 12 15 - - -
01/08:00am - - - - - E 20 28 11 15 - - -
01/07:30am - - - - - ENE 22 30 12 16 - - -
01/07:00am - - - - - E 20 26 11 14 - - -
01/06:30am - - - - - E 20 30 11 16 - - -
01/06:00am - - - - - ENE 20 28 11 15 - - -
01/05:30am - - - - - ENE 17 20 9 11 - - -
01/05:00am - - - - - E 17 22 9 12 - - -
01/04:30am - - - - - ENE 15 20 8 11 - - -
01/04:00am - - - - - ENE 15 20 8 11 - - -
01/03:30am - - - - - ENE 19 24 10 13 - - -
01/03:00am - - - - - ENE 20 26 11 14 - - -
01/02:30am - - - - - ENE 20 24 11 13 - - -
01/02:00am - - - - - ENE 13 19 7 10 - - -
01/01:30am - - - - - ENE 17 22 9 12 - - -
01/01:00am - - - - - ENE 20 26 11 14 - - -
01/12:30am - - - - - ENE 20 28 11 15 - - -
01/12:00am - - - - - ENE 19 24 10 13 - - -
 
Date/Time
EDT
Temp
°C
App
Temp
°C
Dew
Point
Rel
Hum
%
Delta-T
°C
Wind Press
QNH
hPa
Press
MSL
hPa
Rain
since 9 am
mm
Dir
 
Spd
km/h
Gust
km/h
Spd
kts
Gust
kts
28/11:30pm - - - - - ENE 20 28 11 15 - - -
28/11:00pm - - - - - ENE 24 28 13 15 - - -
28/10:30pm - - - - - ENE 24 30 13 16 - - -
28/10:00pm - - - - - ENE 22 28 12 15 - - -
28/09:30pm - - - - - ENE 22 30 12 16 - - -
28/09:00pm - - - - - ENE 20 26 11 14 - - -
28/08:30pm - - - - - ENE 20 26 11 14 - - -
28/08:00pm - - - - - E 19 24 10 13 - - -
28/07:30pm - - - - - ENE 19 26 10 14 - - -
28/07:00pm - - - - - ENE 20 26 11 14 - - -
28/06:30pm - - - - - ENE 17 20 9 11 - - -
28/06:00pm - - - - - E 17 22 9 12 - - -
28/05:30pm - - - - - E 19 20 10 11 - - -
28/05:00pm - - - - - E 20 24 11 13 - - -
28/04:30pm - - - - - E 22 28 12 15 - - -
28/04:00pm - - - - - E 20 26 11 14 - - -
28/03:30pm - - - - - E 22 26 12 14 - - -
28/03:00pm - - - - - E 22 30 12 16 - - -
28/02:30pm - - - - - E 22 26 12 14 - - -
28/02:00pm - - - - - E 24 30 13 16 - - -
28/01:30pm - - - - - E 22 28 12 15 - - -
28/01:00pm - - - - - E 20 26 11 14 - - -
28/12:30pm - - - - - E 20 24 11 13 - - -
28/12:00pm - - - - - E 17 22 9 12 - - -
28/11:30am - - - - - ENE 17 22 9 12 - - -
28/11:00am - - - - - E 17 22 9 12 - - -
28/10:30am - - - - - E 22 28 12 15 - - -
28/10:00am - - - - - ENE 20 26 11 14 - - -
28/09:30am - - - - - ENE 20 24 11 13 - - -
28/09:00am - - - - - E 19 24 10 13 - - -
28/08:30am - - - - - ENE 20 26 11 14 - - -
28/08:00am - - - - - E 20 24 11 13 - - -

Other Formats:

Comma delimited format used in spreadsheet applications
http://www.bom.gov.au/fwo/IDN60801/IDN60801.95995.axf

JavaScript Object Notation format (JSON) in row-major order
http://www.bom.gov.au/fwo/IDN60801/IDN60801.95995.json